createdAt,value
2017-06-09T00:00:30.504Z,0
2017-06-09T00:01:11.003Z,0
2017-06-09T00:01:51.499Z,0
2017-06-09T00:02:31.979Z,0
2017-06-09T00:03:12.478Z,0
2017-06-09T00:03:52.973Z,0
2017-06-09T00:04:33.472Z,0
2017-06-09T00:05:13.963Z,0
2017-06-09T00:05:54.455Z,0
2017-06-09T00:06:34.935Z,0
2017-06-09T00:07:15.432Z,0
2017-06-09T00:07:55.931Z,0
2017-06-09T00:08:36.413Z,0
2017-06-09T00:09:16.895Z,0
2017-06-09T00:09:57.412Z,0
2017-06-09T00:10:37.896Z,0
2017-06-09T00:11:18.432Z,0
2017-06-09T00:11:58.864Z,0
2017-06-09T00:12:39.341Z,0
2017-06-09T00:13:19.816Z,0
2017-06-09T00:14:00.307Z,0
2017-06-09T00:14:40.804Z,0
2017-06-09T00:15:21.283Z,0
2017-06-09T00:16:01.783Z,0
2017-06-09T00:16:42.272Z,0
2017-06-09T00:17:22.759Z,0
2017-06-09T00:18:03.239Z,0
2017-06-09T00:18:43.713Z,0
2017-06-09T00:19:24.211Z,0
2017-06-09T00:20:04.703Z,0
2017-06-09T00:20:45.189Z,0
2017-06-09T00:21:25.683Z,0
2017-06-09T00:22:06.173Z,0
2017-06-09T00:22:46.657Z,0
2017-06-09T00:23:27.165Z,0
2017-06-09T00:24:07.656Z,0
2017-06-09T00:24:48.146Z,0
2017-06-09T00:25:28.649Z,0
2017-06-09T00:26:09.156Z,0
2017-06-09T00:26:49.615Z,0
2017-06-09T00:27:30.104Z,0
2017-06-09T00:28:10.598Z,0
2017-06-09T00:28:51.089Z,0
2017-06-09T00:29:31.582Z,0
2017-06-09T00:30:12.081Z,0
2017-06-09T00:30:52.558Z,0
2017-06-09T00:31:33.048Z,0
2017-06-09T00:32:13.535Z,0
2017-06-09T00:32:54.034Z,0
2017-06-09T00:33:34.521Z,0
2017-06-09T00:34:14.992Z,0
2017-06-09T00:34:55.511Z,0
2017-06-09T00:35:35.970Z,0
2017-06-09T00:36:16.475Z,0
2017-06-09T00:36:56.967Z,0
2017-06-09T00:37:37.460Z,0
2017-06-09T00:38:17.949Z,0
2017-06-09T00:38:58.442Z,0
2017-06-09T00:39:38.987Z,0
2017-06-09T00:40:19.440Z,0
2017-06-09T00:40:59.942Z,0
2017-06-09T00:41:40.433Z,0
2017-06-09T00:42:20.871Z,0
2017-06-09T00:43:01.390Z,0
2017-06-09T00:43:41.853Z,0
2017-06-09T00:44:22.367Z,0
2017-06-09T00:45:02.824Z,0
2017-06-09T00:45:43.332Z,0
2017-06-09T00:46:23.825Z,0
2017-06-09T00:47:04.305Z,0
2017-06-09T00:47:44.820Z,0
2017-06-09T00:48:25.291Z,0
2017-06-09T00:49:05.779Z,0
2017-06-09T00:49:46.277Z,0
2017-06-09T00:50:26.761Z,0
2017-06-09T00:51:07.240Z,0
2017-06-09T00:51:47.730Z,0
2017-06-09T00:52:29.109Z,0
2017-06-09T00:53:09.590Z,0
2017-06-09T00:53:50.074Z,0
2017-06-09T00:54:30.555Z,0
2017-06-09T00:55:11.046Z,0
2017-06-09T00:55:51.544Z,0
2017-06-09T00:56:32.021Z,0
2017-06-09T00:57:12.535Z,0
2017-06-09T00:57:53.014Z,0
2017-06-09T00:58:33.508Z,0
2017-06-09T00:59:14.000Z,0
2017-06-09T00:59:54.476Z,0
2017-06-09T01:00:35.031Z,0
2017-06-09T01:01:15.465Z,0
2017-06-09T01:01:55.968Z,0
2017-06-09T01:02:36.450Z,0
2017-06-09T01:03:16.928Z,0
2017-06-09T01:03:57.392Z,0
2017-06-09T01:04:37.891Z,0
2017-06-09T01:05:18.383Z,0
2017-06-09T01:05:58.856Z,0
2017-06-09T01:06:39.339Z,0
2017-06-09T01:07:19.841Z,0
2017-06-09T01:08:00.320Z,0
2017-06-09T01:08:40.798Z,0
2017-06-09T01:09:21.283Z,0
2017-06-09T01:10:01.780Z,0
2017-06-09T01:10:42.270Z,0
2017-06-09T01:11:22.765Z,0
2017-06-09T01:12:03.260Z,0
2017-06-09T01:12:43.745Z,0
2017-06-09T01:13:24.242Z,0
2017-06-09T01:14:04.718Z,0
2017-06-09T01:16:02.353Z,0
2017-06-09T01:16:42.858Z,0
2017-06-09T01:17:23.318Z,0
2017-06-09T01:18:03.802Z,0
2017-06-09T01:18:44.277Z,0
2017-06-09T01:19:24.758Z,0
2017-06-09T01:20:05.244Z,0
2017-06-09T01:20:45.721Z,0
2017-06-09T01:21:26.208Z,0
2017-06-09T01:22:06.688Z,0
2017-06-09T01:22:47.186Z,0
2017-06-09T01:23:27.674Z,0
2017-06-09T01:24:08.173Z,0
2017-06-09T01:24:48.645Z,0
2017-06-09T01:25:29.180Z,0
2017-06-09T01:26:09.616Z,0
2017-06-09T01:26:50.112Z,0
2017-06-09T01:27:30.618Z,0
2017-06-09T01:28:11.088Z,0
2017-06-09T01:28:51.572Z,0
2017-06-09T01:29:32.065Z,0
2017-06-09T01:30:12.558Z,0
2017-06-09T01:30:53.071Z,0
2017-06-09T01:31:33.540Z,0
2017-06-09T01:32:14.033Z,0
2017-06-09T01:32:54.527Z,0
2017-06-09T01:33:35.029Z,0
2017-06-09T01:34:15.511Z,0
2017-06-09T01:34:56.007Z,0
2017-06-09T01:35:36.477Z,0
2017-06-09T01:36:16.990Z,0
2017-06-09T01:36:57.479Z,0
2017-06-09T01:37:37.980Z,0
2017-06-09T01:38:18.463Z,0
2017-06-09T01:38:58.959Z,0
2017-06-09T01:39:39.432Z,0
2017-06-09T01:40:19.923Z,0
2017-06-09T01:41:00.403Z,0
2017-06-09T01:41:40.893Z,0
2017-06-09T01:42:21.407Z,0
2017-06-09T01:43:01.875Z,0
2017-06-09T01:43:42.348Z,0
2017-06-09T01:44:22.832Z,0
2017-06-09T01:45:03.333Z,0
2017-06-09T01:45:43.824Z,0
2017-06-09T01:46:24.305Z,0
2017-06-09T01:47:04.792Z,0
2017-06-09T01:47:45.290Z,0
2017-06-09T01:48:25.769Z,0
2017-06-09T01:49:06.250Z,0
2017-06-09T01:49:46.732Z,0
2017-06-09T01:50:27.206Z,0
2017-06-09T01:51:07.694Z,0
2017-06-09T01:51:48.161Z,0
2017-06-09T01:52:28.666Z,0
2017-06-09T01:53:09.155Z,0
2017-06-09T01:53:49.651Z,0
2017-06-09T01:54:30.145Z,0
2017-06-09T01:55:10.646Z,0
2017-06-09T01:55:51.138Z,0
2017-06-09T01:56:31.632Z,0
2017-06-09T01:57:12.117Z,0
2017-06-09T01:57:52.606Z,0
2017-06-09T01:58:33.109Z,0
2017-06-09T01:59:13.605Z,0
2017-06-09T01:59:54.090Z,0
2017-06-09T02:00:34.574Z,0
2017-06-09T02:01:15.072Z,0
2017-06-09T02:01:55.561Z,0
2017-06-09T02:02:36.063Z,0
2017-06-09T02:03:16.545Z,0
2017-06-09T02:03:57.028Z,0
2017-06-09T02:04:37.528Z,0
2017-06-09T02:05:18.026Z,0
2017-06-09T02:05:58.515Z,0
2017-06-09T02:06:39.029Z,0
2017-06-09T02:07:19.497Z,0
2017-06-09T02:07:59.991Z,0
2017-06-09T02:08:40.487Z,0
2017-06-09T02:09:21.848Z,0
2017-06-09T02:10:02.352Z,0
2017-06-09T02:10:42.852Z,0
2017-06-09T02:11:23.352Z,0
2017-06-09T02:12:03.838Z,0
2017-06-09T02:12:44.327Z,0
2017-06-09T02:13:24.820Z,0
2017-06-09T02:14:05.308Z,0
2017-06-09T02:14:45.805Z,0
2017-06-09T02:15:26.306Z,0
2017-06-09T02:16:06.779Z,0
2017-06-09T02:16:47.853Z,0
2017-06-09T02:17:28.342Z,0
2017-06-09T02:18:08.813Z,0
2017-06-09T02:18:49.314Z,0
2017-06-09T02:19:29.822Z,0
2017-06-09T02:20:10.278Z,0
2017-06-09T02:22:43.333Z,0
2017-06-09T02:23:23.827Z,0
2017-06-09T02:24:04.299Z,0
2017-06-09T02:24:44.773Z,0
2017-06-09T02:25:25.252Z,0
2017-06-09T02:26:06.590Z,0
2017-06-09T02:26:47.070Z,0
2017-06-09T02:27:27.522Z,0
2017-06-09T02:28:07.975Z,0
2017-06-09T02:28:48.407Z,0
2017-06-09T02:29:28.856Z,0
2017-06-09T02:30:09.345Z,0
2017-06-09T02:30:49.782Z,0
2017-06-09T02:31:30.262Z,0
2017-06-09T02:32:10.717Z,0
2017-06-09T02:32:51.170Z,0
2017-06-09T02:33:31.609Z,0
2017-06-09T02:34:12.079Z,0
2017-06-09T02:34:52.540Z,0
2017-06-09T02:35:33.008Z,0
2017-06-09T02:36:13.489Z,0
2017-06-09T02:36:54.788Z,0
2017-06-09T02:37:35.282Z,0
2017-06-09T02:38:15.756Z,0
2017-06-09T02:38:56.243Z,0
2017-06-09T02:39:36.700Z,0
2017-06-09T02:40:17.149Z,0
2017-06-09T02:40:57.592Z,0
2017-06-09T02:41:38.059Z,0
2017-06-09T02:42:18.538Z,0
2017-06-09T02:42:58.986Z,0
2017-06-09T02:43:39.462Z,0
2017-06-09T02:45:52.239Z,0
2017-06-09T02:46:32.657Z,4
2017-06-09T02:47:13.158Z,4
2017-06-09T02:47:53.621Z,4
2017-06-09T02:48:34.109Z,4
2017-06-09T02:49:14.584Z,4
2017-06-09T02:49:55.068Z,4
2017-06-09T02:50:35.566Z,0
2017-06-09T02:51:16.043Z,4
2017-06-09T02:51:56.539Z,4
2017-06-09T02:52:37.030Z,4
2017-06-09T02:53:17.557Z,4
2017-06-09T02:53:57.998Z,8
2017-06-09T02:54:38.562Z,4
2017-06-09T02:55:19.013Z,4
2017-06-09T02:55:59.513Z,8
2017-06-09T02:56:40.057Z,8
2017-06-09T02:57:20.478Z,8
2017-06-09T02:58:00.959Z,8
2017-06-09T02:58:41.439Z,12
2017-06-09T02:59:21.952Z,8
2017-06-09T03:00:02.448Z,12
2017-06-09T03:00:42.939Z,16
2017-06-09T03:01:23.446Z,12
2017-06-09T03:02:03.937Z,16
2017-06-09T03:02:44.455Z,16
2017-06-09T03:03:24.943Z,16
2017-06-09T03:04:05.438Z,20
2017-06-09T03:04:45.934Z,20
2017-06-09T03:05:26.410Z,24
2017-06-09T03:06:06.916Z,24
2017-06-09T03:06:47.403Z,28
2017-06-09T03:07:27.897Z,32
2017-06-09T03:08:08.380Z,32
2017-06-09T03:08:48.880Z,36
2017-06-09T03:09:29.372Z,36
2017-06-09T03:10:09.863Z,40
2017-06-09T03:10:50.361Z,44
2017-06-09T03:11:30.853Z,44
2017-06-09T03:12:11.347Z,48
2017-06-09T03:12:51.843Z,52
2017-06-09T03:13:32.337Z,60
2017-06-09T03:14:12.827Z,60
2017-06-09T03:14:53.313Z,64
2017-06-09T03:15:33.796Z,68
2017-06-09T03:16:14.287Z,76
2017-06-09T03:16:54.770Z,80
2017-06-09T03:17:35.249Z,80
2017-06-09T03:18:15.741Z,88
2017-06-09T03:18:56.244Z,96
2017-06-09T03:19:36.720Z,100
2017-06-09T03:20:17.209Z,104
2017-06-09T03:20:57.687Z,108
2017-06-09T03:21:38.202Z,116
2017-06-09T03:22:18.699Z,120
2017-06-09T03:22:59.181Z,128
2017-06-09T03:23:39.680Z,136
2017-06-09T03:24:20.159Z,144
2017-06-09T03:25:00.637Z,152
2017-06-09T03:25:41.151Z,160
2017-06-09T03:26:21.629Z,168
2017-06-09T03:27:02.117Z,176
2017-06-09T03:27:42.615Z,184
2017-06-09T03:28:23.089Z,188
2017-06-09T03:29:03.587Z,200
2017-06-09T03:29:44.076Z,208
2017-06-09T03:30:24.551Z,216
2017-06-09T03:31:05.049Z,224
2017-06-09T03:31:45.564Z,232
2017-06-09T03:32:26.044Z,244
2017-06-09T03:33:06.528Z,252
2017-06-09T03:33:47.043Z,264
2017-06-09T03:34:27.523Z,272
2017-06-09T03:35:08.018Z,284
2017-06-09T03:35:48.518Z,296
2017-06-09T03:36:28.999Z,308
2017-06-09T03:37:09.489Z,320
2017-06-09T03:37:49.970Z,332
2017-06-09T03:38:30.471Z,344
2017-06-09T03:39:10.957Z,356
2017-06-09T03:39:51.431Z,368
2017-06-09T03:40:31.931Z,384
2017-06-09T03:41:12.412Z,392
2017-06-09T03:41:52.907Z,408
2017-06-09T03:42:33.384Z,424
2017-06-09T03:43:13.891Z,436
2017-06-09T03:43:54.406Z,452
2017-06-09T03:44:34.884Z,464
2017-06-09T03:45:15.375Z,488
2017-06-09T03:45:55.850Z,504
2017-06-09T03:46:36.334Z,520
2017-06-09T03:47:16.834Z,540
2017-06-09T03:47:57.342Z,556
2017-06-09T03:48:37.830Z,576
2017-06-09T03:49:19.203Z,596
2017-06-09T03:49:59.700Z,616
2017-06-09T03:50:40.201Z,636
2017-06-09T03:51:20.700Z,660
2017-06-09T03:52:01.184Z,680
2017-06-09T03:52:41.675Z,704
2017-06-09T03:53:22.181Z,728
2017-06-09T03:54:02.661Z,748
2017-06-09T03:54:43.151Z,772
2017-06-09T03:55:23.634Z,788
2017-06-09T03:56:04.119Z,808
2017-06-09T03:56:44.617Z,824
2017-06-09T03:57:25.119Z,848
2017-06-09T03:58:05.604Z,872
2017-06-09T03:58:46.092Z,892
2017-06-09T03:59:26.576Z,912
2017-06-09T04:00:07.066Z,932
2017-06-09T04:00:47.545Z,948
2017-06-09T04:01:28.041Z,964
2017-06-09T04:02:08.525Z,984
2017-06-09T04:02:49.022Z,1004
2017-06-09T04:03:29.503Z,1020
2017-06-09T04:04:09.997Z,1036
2017-06-09T04:04:50.485Z,1052
2017-06-09T04:05:30.965Z,1064
2017-06-09T04:06:11.453Z,1080
2017-06-09T04:06:51.939Z,1096
2017-06-09T04:07:32.420Z,1108
2017-06-09T04:08:12.915Z,1128
2017-06-09T04:08:53.438Z,1144
2017-06-09T04:09:33.904Z,1156
2017-06-09T04:10:14.397Z,1172
2017-06-09T04:10:54.887Z,1188
2017-06-09T04:11:35.423Z,1196
2017-06-09T04:12:15.873Z,1212
2017-06-09T04:12:56.349Z,1228
2017-06-09T04:13:36.831Z,1244
2017-06-09T04:14:17.336Z,1260
2017-06-09T04:14:57.806Z,1272
2017-06-09T04:15:38.308Z,1296
2017-06-09T04:16:18.806Z,1316
2017-06-09T04:16:59.296Z,1336
2017-06-09T04:17:39.770Z,1356
2017-06-09T04:18:20.246Z,1380
2017-06-09T04:19:00.741Z,1400
2017-06-09T04:19:41.212Z,1420
2017-06-09T04:22:09.111Z,1488
2017-06-09T04:22:49.586Z,1512
2017-06-09T04:23:30.074Z,1532
2017-06-09T04:24:10.578Z,1556
2017-06-09T04:24:51.056Z,1580
2017-06-09T04:25:31.552Z,1608
2017-06-09T04:26:12.050Z,1628
2017-06-09T04:26:52.537Z,1660
2017-06-09T04:27:33.027Z,1680
2017-06-09T04:28:13.561Z,1696
2017-06-09T04:28:54.011Z,1712
2017-06-09T04:29:34.475Z,1728
2017-06-09T04:30:14.978Z,1760
2017-06-09T04:30:55.488Z,1800
2017-06-09T04:31:35.967Z,1844
2017-06-09T04:32:16.447Z,1888
2017-06-09T04:32:56.942Z,2020
2017-06-09T04:33:37.428Z,2428
2017-06-09T04:34:17.899Z,3008
2017-06-09T04:34:58.387Z,3560
2017-06-09T04:35:38.878Z,3900
2017-06-09T04:36:19.374Z,4000
2017-06-09T04:36:59.866Z,4060
2017-06-09T04:37:40.364Z,4108
2017-06-09T04:38:20.824Z,4160
2017-06-09T04:39:01.326Z,4208
2017-06-09T04:39:41.790Z,4232
2017-06-09T04:40:22.292Z,4332
2017-06-09T04:41:02.761Z,4400
2017-06-09T04:41:43.259Z,4468
2017-06-09T04:42:23.738Z,4544
2017-06-09T04:43:04.229Z,4548
2017-06-09T04:43:44.742Z,4664
2017-06-09T04:44:25.201Z,4732
2017-06-09T04:45:05.685Z,4816
2017-06-09T04:45:46.167Z,4900
2017-06-09T04:46:26.649Z,4980
2017-06-09T04:47:07.205Z,5060
2017-06-09T04:47:47.633Z,5136
2017-06-09T04:48:28.140Z,5220
2017-06-09T04:49:08.645Z,5288
2017-06-09T04:49:49.140Z,5348
2017-06-09T04:50:29.635Z,5408
2017-06-09T04:51:10.129Z,5484
2017-06-09T04:51:50.635Z,5568
2017-06-09T04:52:31.139Z,5648
2017-06-09T04:53:11.622Z,5724
2017-06-09T04:53:52.827Z,5804
2017-06-09T04:54:33.300Z,5780
2017-06-09T04:55:13.770Z,5492
2017-06-09T04:55:54.256Z,5616
2017-06-09T04:56:34.757Z,6000
2017-06-09T04:57:15.239Z,6144
2017-06-09T04:57:55.745Z,6180
2017-06-09T04:58:36.225Z,6216
2017-06-09T04:59:16.717Z,6276
2017-06-09T04:59:57.207Z,6296
2017-06-09T05:00:37.712Z,6368
2017-06-09T05:01:18.199Z,6432
2017-06-09T05:01:58.737Z,6504
2017-06-09T05:02:39.221Z,6568
2017-06-09T05:03:19.719Z,6520
2017-06-09T05:04:00.200Z,6304
2017-06-09T05:04:40.672Z,6088
2017-06-09T05:05:21.168Z,6516
2017-06-09T05:06:01.639Z,6296
2017-06-09T05:06:42.146Z,6476
2017-06-09T05:07:22.623Z,6628
2017-06-09T05:08:03.104Z,6784
2017-06-09T05:08:43.624Z,7116
2017-06-09T05:09:24.116Z,7204
2017-06-09T05:10:04.617Z,6912
2017-06-09T05:10:45.098Z,6600
2017-06-09T05:11:25.581Z,6472
2017-06-09T05:12:06.085Z,6844
2017-06-09T05:12:46.591Z,7072
2017-06-09T05:13:27.090Z,7216
2017-06-09T05:14:07.577Z,7596
2017-06-09T05:14:48.105Z,7748
2017-06-09T05:15:28.538Z,7852
2017-06-09T05:16:09.111Z,8056
2017-06-09T05:16:49.564Z,8132
2017-06-09T05:19:02.289Z,8452
2017-06-09T05:19:42.769Z,8664
2017-06-09T05:20:23.265Z,8780
2017-06-09T05:21:03.765Z,8920
2017-06-09T05:21:44.271Z,8644
2017-06-09T05:22:24.762Z,9092
2017-06-09T05:23:05.292Z,9224
2017-06-09T05:23:45.721Z,9344
2017-06-09T05:24:26.230Z,9560
2017-06-09T05:25:06.713Z,9704
2017-06-09T05:25:47.209Z,9984
2017-06-09T05:26:27.704Z,10156
2017-06-09T05:27:08.195Z,10192
2017-06-09T05:27:48.705Z,10164
2017-06-09T05:28:29.223Z,10364
2017-06-09T05:29:09.748Z,10088
2017-06-09T05:29:50.241Z,10392
2017-06-09T05:30:30.757Z,10416
2017-06-09T05:31:11.246Z,10460
2017-06-09T05:31:51.739Z,10488
2017-06-09T05:32:32.224Z,10472
2017-06-09T05:33:12.706Z,10364
2017-06-09T05:33:53.187Z,10444
2017-06-09T05:34:33.691Z,10356
2017-06-09T05:35:14.173Z,10564
2017-06-09T05:35:54.657Z,10712
2017-06-09T05:36:35.183Z,10860
2017-06-09T05:37:15.679Z,10744
2017-06-09T05:37:56.151Z,11080
2017-06-09T05:38:36.660Z,11172
2017-06-09T05:39:17.157Z,11212
2017-06-09T05:39:57.651Z,11404
2017-06-09T05:42:25.627Z,11976
2017-06-09T05:43:06.098Z,12440
2017-06-09T05:43:46.543Z,12928
2017-06-09T05:44:26.965Z,13456
2017-06-09T05:45:07.434Z,13312
2017-06-09T05:45:47.895Z,13584
2017-06-09T05:46:28.368Z,13744
2017-06-09T05:47:08.833Z,14784
2017-06-09T05:47:49.281Z,14560
2017-06-09T05:48:29.736Z,15220
2017-06-09T05:50:42.459Z,16576
2017-06-09T05:51:22.944Z,15468
2017-06-09T05:52:03.403Z,16896
2017-06-09T05:52:43.890Z,16448
2017-06-09T05:53:24.372Z,16960
2017-06-09T05:54:04.821Z,17504
2017-06-09T05:54:45.272Z,17376
2017-06-09T05:55:25.736Z,16800
2017-06-09T05:56:06.172Z,16896
2017-06-09T05:56:46.598Z,16480
2017-06-09T05:57:28.983Z,15644
2017-06-09T05:58:14.224Z,14384
2017-06-09T05:58:54.677Z,13576
2017-06-09T05:59:35.108Z,10528
2017-06-09T06:00:15.552Z,10548
2017-06-09T06:00:56.736Z,10576
2017-06-09T06:01:37.154Z,10712
2017-06-09T06:02:17.617Z,11032
2017-06-09T06:02:58.061Z,10944
2017-06-09T06:05:26.073Z,12220
2017-06-09T06:06:06.515Z,11112
2017-06-09T06:06:47.020Z,11168
2017-06-09T06:07:27.570Z,11324
2017-06-09T06:08:08.131Z,11372
2017-06-09T06:08:48.562Z,11692
2017-06-09T06:09:29.040Z,11476
2017-06-09T06:10:09.557Z,11516
2017-06-09T06:10:50.056Z,11704
2017-06-09T06:11:30.555Z,12088
2017-06-09T06:12:11.014Z,12736
2017-06-09T06:12:51.507Z,12864
2017-06-09T06:13:32.002Z,13872
2017-06-09T06:14:12.495Z,13420
2017-06-09T06:14:53.011Z,13316
2017-06-09T06:15:33.501Z,13076
2017-06-09T06:16:14.012Z,13300
2017-06-09T06:16:54.542Z,14528
2017-06-09T06:17:35.059Z,16004
2017-06-09T06:18:15.544Z,13708
2017-06-09T06:18:56.020Z,15620
2017-06-09T06:19:36.514Z,14660
2017-06-09T06:20:17.007Z,15128
2017-06-09T06:20:57.491Z,16028
2017-06-09T06:21:38.009Z,15232
2017-06-09T06:22:18.537Z,14664
2017-06-09T06:22:59.594Z,16148
2017-06-09T06:23:40.088Z,13684
2017-06-09T06:24:20.559Z,14040
2017-06-09T06:25:01.065Z,15012
2017-06-09T06:25:41.574Z,14144
2017-06-09T06:26:22.088Z,12792
2017-06-09T06:27:02.539Z,13596
2017-06-09T06:27:43.047Z,13216
2017-06-09T06:28:23.586Z,12032
2017-06-09T06:29:04.085Z,11548
2017-06-09T06:29:44.560Z,11548
2017-06-09T06:30:25.057Z,11228
2017-06-09T06:31:06.219Z,11112
2017-06-09T06:31:46.731Z,10680
2017-06-09T06:32:27.224Z,10712
2017-06-09T06:33:07.724Z,10656
2017-06-09T06:33:48.209Z,10652
2017-06-09T06:34:28.713Z,10692
2017-06-09T06:35:09.219Z,10908
2017-06-09T06:35:49.710Z,10948
2017-06-09T06:38:02.423Z,10724
2017-06-09T06:38:42.935Z,10656
2017-06-09T06:39:23.437Z,10692
2017-06-09T06:40:03.929Z,10740
2017-06-09T06:40:44.414Z,10716
2017-06-09T06:41:24.919Z,10768
2017-06-09T06:42:05.381Z,10812
2017-06-09T06:42:45.872Z,10796
2017-06-09T06:43:27.024Z,10780
2017-06-09T06:44:07.999Z,10780
2017-06-09T06:44:48.484Z,10772
2017-06-09T06:45:29.014Z,10768
2017-06-09T06:46:09.482Z,10776
2017-06-09T06:46:50.012Z,10752
2017-06-09T06:47:30.486Z,10708
2017-06-09T06:48:10.996Z,10632
2017-06-09T06:48:51.426Z,10536
2017-06-09T06:49:31.892Z,10448
2017-06-09T06:50:12.375Z,10328
2017-06-09T06:50:52.824Z,10160
2017-06-09T06:53:10.651Z,10288
2017-06-09T06:53:51.158Z,10312
2017-06-09T06:54:31.632Z,10328
2017-06-09T06:55:12.109Z,10404
2017-06-09T06:55:52.619Z,10120
2017-06-09T06:56:33.136Z,10096
2017-06-09T06:57:13.670Z,10056
2017-06-09T06:57:54.146Z,9316
2017-06-09T06:58:34.622Z,8976
2017-06-09T06:59:15.113Z,8672
2017-06-09T06:59:56.452Z,8472
2017-06-09T07:00:36.921Z,8376
2017-06-09T07:01:17.416Z,8372
2017-06-09T07:01:57.919Z,8404
2017-06-09T07:02:38.433Z,8480
2017-06-09T07:03:18.926Z,8560
2017-06-09T07:03:59.437Z,8520
2017-06-09T07:04:39.928Z,8528
2017-06-09T07:05:20.419Z,8580
2017-06-09T07:06:00.898Z,8648
2017-06-09T07:06:41.399Z,8800
2017-06-09T07:07:21.886Z,8984
2017-06-09T07:08:02.393Z,9112
2017-06-09T07:08:42.884Z,9320
2017-06-09T07:09:23.393Z,9672
2017-06-09T07:10:03.882Z,9792
2017-06-09T07:10:44.373Z,10072
2017-06-09T07:11:24.864Z,10296
2017-06-09T07:12:05.355Z,10664
2017-06-09T07:12:45.846Z,10856
2017-06-09T07:13:26.345Z,11004
2017-06-09T07:14:06.858Z,11372
2017-06-09T07:14:47.343Z,11776
2017-06-09T07:15:27.837Z,12160
2017-06-09T07:16:08.331Z,12304
2017-06-09T07:16:48.815Z,12568
2017-06-09T07:17:29.298Z,12808
2017-06-09T07:18:09.785Z,12928
2017-06-09T07:18:50.294Z,13700
2017-06-09T07:21:24.337Z,17312
2017-06-09T07:22:04.815Z,15672
2017-06-09T07:22:45.304Z,14208
2017-06-09T07:23:25.815Z,12644
2017-06-09T07:24:06.354Z,11284
2017-06-09T07:24:47.576Z,10744
2017-06-09T07:25:28.084Z,10452
2017-06-09T07:26:08.545Z,10812
2017-06-09T07:26:49.049Z,11040
2017-06-09T07:27:29.617Z,11036
2017-06-09T07:28:10.089Z,11408
2017-06-09T07:28:50.546Z,12024
2017-06-09T07:29:31.057Z,12960
2017-06-09T07:30:11.547Z,16408
2017-06-09T07:30:52.009Z,18016
2017-06-09T07:32:49.705Z,20608
2017-06-09T07:33:30.306Z,20192
2017-06-09T07:34:10.785Z,20288
2017-06-09T07:34:51.297Z,19520
2017-06-09T07:35:31.797Z,19840
2017-06-09T07:36:12.292Z,19424
2017-06-09T07:36:52.818Z,19488
2017-06-09T07:37:33.290Z,19520
2017-06-09T07:38:13.791Z,17376
2017-06-09T07:38:54.259Z,17536
2017-06-09T07:39:35.473Z,15044
2017-06-09T07:40:15.946Z,13888
2017-06-09T07:40:56.416Z,14820
2017-06-09T07:41:36.909Z,17060
2017-06-09T07:42:17.421Z,20672
2017-06-09T07:42:57.917Z,22656
2017-06-09T07:43:38.407Z,22976
2017-06-09T07:44:18.912Z,22688
2017-06-09T07:44:59.396Z,23040
2017-06-09T07:45:39.876Z,23264
2017-06-09T07:46:20.361Z,20800
2017-06-09T07:47:00.862Z,18432
2017-06-09T07:47:41.332Z,19808
2017-06-09T07:48:21.809Z,19872
2017-06-09T07:49:02.367Z,19648
2017-06-09T07:49:42.802Z,18816
2017-06-09T07:52:00.669Z,18016
2017-06-09T07:52:41.105Z,19616
2017-06-09T07:53:21.600Z,20192
2017-06-09T07:54:02.093Z,19936
2017-06-09T07:54:42.584Z,19168
2017-06-09T07:55:23.106Z,19360
2017-06-09T07:56:03.596Z,17312
2017-06-09T07:56:44.117Z,17440
2017-06-09T07:57:24.623Z,17344
2017-06-09T07:58:05.110Z,16940
2017-06-09T07:58:46.288Z,19104
2017-06-09T07:59:26.765Z,20096
2017-06-09T08:00:07.281Z,20928
2017-06-09T08:00:47.730Z,20384
2017-06-09T08:01:28.177Z,21056
2017-06-09T08:03:25.849Z,29152
2017-06-09T08:04:08.510Z,36928
2017-06-09T08:06:36.497Z,67872
2017-06-09T08:07:16.998Z,72032
2017-06-09T08:07:57.529Z,66592
2017-06-09T08:08:38.083Z,51552
2017-06-09T08:09:18.575Z,42016
2017-06-09T08:09:59.074Z,40352
2017-06-09T08:10:39.636Z,41088
2017-06-09T08:11:20.141Z,45408
2017-06-09T08:12:00.695Z,45056
2017-06-09T08:12:41.285Z,38240
2017-06-09T08:13:21.871Z,34688
2017-06-09T08:14:02.432Z,31424
2017-06-09T08:14:43.888Z,30240
2017-06-09T08:15:24.382Z,26336
2017-06-09T08:16:04.871Z,20768
2017-06-09T08:16:45.351Z,18464
2017-06-09T08:17:25.854Z,17568
2017-06-09T08:18:06.340Z,17504
2017-06-09T08:18:46.833Z,17824
2017-06-09T08:19:27.342Z,17824
2017-06-09T08:20:07.832Z,17888
2017-06-09T08:22:40.955Z,17792
2017-06-09T08:23:21.503Z,17984
2017-06-09T08:24:01.960Z,20832
2017-06-09T08:24:42.461Z,20448
2017-06-09T08:25:22.994Z,19936
2017-06-09T08:26:03.483Z,19552
2017-06-09T08:26:43.985Z,20704
2017-06-09T08:27:24.497Z,25504
2017-06-09T08:28:04.948Z,26112
2017-06-09T08:28:45.427Z,58272
2017-06-09T08:29:26.672Z,90816
2017-06-09T08:30:07.142Z,55616
2017-06-09T08:30:47.642Z,72736
2017-06-09T08:31:28.150Z,82976
2017-06-09T08:34:01.244Z,25280
2017-06-09T08:34:41.730Z,23264
2017-06-09T08:35:22.212Z,24320
2017-06-09T08:36:02.713Z,33728
2017-06-09T08:36:43.202Z,36320
2017-06-09T08:37:23.676Z,27264
2017-06-09T08:38:04.174Z,27264
2017-06-09T08:38:44.674Z,30400
2017-06-09T08:39:25.160Z,29856
2017-06-09T08:40:05.661Z,42176
2017-06-09T08:40:46.167Z,53120
2017-06-09T08:41:26.665Z,57760
2017-06-09T08:42:07.191Z,77120
2017-06-09T08:42:47.718Z,69568
2017-06-09T08:43:28.245Z,69344
2017-06-09T08:44:08.731Z,75456
2017-06-09T08:44:49.229Z,70432
2017-06-09T08:45:29.734Z,53440
2017-06-09T08:46:10.237Z,69760
2017-06-09T08:46:51.022Z,78816
2017-06-09T08:47:31.448Z,58048
2017-06-09T08:48:11.972Z,55936
2017-06-09T08:48:52.429Z,46400
2017-06-09T08:49:32.897Z,45792
2017-06-09T08:50:13.402Z,46592
2017-06-09T08:50:53.858Z,45920
2017-06-09T08:51:34.348Z,43008
2017-06-09T08:52:14.833Z,33952
2017-06-09T08:52:55.344Z,43200
2017-06-09T08:55:28.484Z,42240
2017-06-09T08:56:08.938Z,43808
2017-06-09T08:56:49.393Z,38528
2017-06-09T08:57:29.926Z,42464
2017-06-09T08:58:10.409Z,46976
2017-06-09T08:58:50.894Z,50464
2017-06-09T08:59:31.466Z,56704
2017-06-09T09:00:12.025Z,71008
2017-06-09T09:00:53.378Z,71456
2017-06-09T09:01:33.890Z,76704
2017-06-09T09:02:14.399Z,70400
2017-06-09T09:02:55.833Z,87776
2017-06-09T09:03:36.343Z,88448
2017-06-09T09:04:16.843Z,76256
2017-06-09T09:04:57.394Z,61248
2017-06-09T09:05:37.887Z,68864
2017-06-09T09:06:18.398Z,31104
2017-06-09T09:06:58.881Z,64832
2017-06-09T09:07:39.358Z,67072
2017-06-09T09:08:19.822Z,26176
2017-06-09T09:09:00.343Z,20320
2017-06-09T09:09:41.866Z,17344
2017-06-09T09:10:23.037Z,16528
2017-06-09T09:11:03.593Z,16504
2017-06-09T09:11:44.133Z,16596
2017-06-09T09:12:24.658Z,16516
2017-06-09T09:13:05.148Z,15984
2017-06-09T09:13:45.692Z,15696
2017-06-09T09:14:26.172Z,15080
2017-06-09T09:15:06.665Z,14268
2017-06-09T09:15:47.185Z,13488
2017-06-09T09:16:27.684Z,12948
2017-06-09T09:17:08.313Z,12644
2017-06-09T09:17:48.779Z,12584
2017-06-09T09:18:29.260Z,12324
2017-06-09T09:19:09.716Z,12140
2017-06-09T09:19:50.184Z,11968
2017-06-09T09:22:03.008Z,11944
2017-06-09T09:22:43.393Z,12100
2017-06-09T09:23:24.902Z,12240
2017-06-09T09:24:05.427Z,12344
2017-06-09T09:24:45.921Z,12324
2017-06-09T09:25:26.435Z,12196
2017-06-09T09:26:06.946Z,12124
2017-06-09T09:26:47.482Z,12124
2017-06-09T09:27:27.909Z,12100
2017-06-09T09:28:08.495Z,11940
2017-06-09T09:28:48.990Z,11820
2017-06-09T09:29:29.513Z,11792
2017-06-09T09:30:09.970Z,11800
2017-06-09T09:30:50.483Z,11800
2017-06-09T09:31:31.006Z,11772
2017-06-09T09:32:11.546Z,11720
2017-06-09T09:32:52.084Z,11648
2017-06-09T09:33:32.613Z,11636
2017-06-09T09:34:13.165Z,11784
2017-06-09T09:34:53.739Z,12052
2017-06-09T09:35:34.290Z,12380
2017-06-09T09:36:15.427Z,12712
2017-06-09T09:36:55.939Z,13016
2017-06-09T09:37:36.536Z,13248
2017-06-09T09:38:18.006Z,13292
2017-06-09T09:38:58.510Z,13196
2017-06-09T09:39:39.031Z,12988
2017-06-09T09:40:19.533Z,12896
2017-06-09T09:41:00.028Z,12788
2017-06-09T09:41:40.516Z,12684
2017-06-09T09:42:21.004Z,12536
2017-06-09T09:43:01.499Z,12356
2017-06-09T09:43:41.982Z,12264